Time;durP1;ratioP1;P1;durP2;ratioP2;P2;SDS_P1;SDS_P2;PMS_P1;PMS_P2;Temp;Humidity;BMP_temperature;BMP_pressure;BME280_temperature;BME280_humidity;BME280_pressure;Samples;Min_cycle;Max_cycle;Signal;HPM_P1;HPM_P2
2022/11/14 00:01:48;;;;;;;53.00;26.27;;;;;;;29.58;69.34;100893.41;5084990;27;66277;-38
2022/11/14 00:04:38;;;;;;;57.47;27.25;;;;;;;29.71;68.90;100909.63;5087448;27;70843;-35
2022/11/14 00:07:31;;;;;;;50.10;23.73;;;;;;;29.67;72.17;100905.72;5080749;27;66697;-37
2022/11/14 00:10:21;;;;;;;47.53;22.23;;;;;;;29.70;72.70;100916.09;5100184;27;70902;-38
2022/11/14 00:13:11;;;;;;;29.20;20.08;;;;;;;29.76;73.87;100939.59;5083149;27;65335;-39
2022/11/14 00:16:00;;;;;;;38.42;18.77;;;;;;;29.80;72.27;100926.47;5083588;27;70175;-37
2022/11/14 00:18:51;;;;;;;41.22;18.40;;;;;;;29.88;68.47;100936.22;5086298;27;66826;-40
2022/11/14 00:21:41;;;;;;;28.10;16.65;;;;;;;29.90;67.66;100934.16;5088687;27;70088;-36
2022/11/14 00:24:30;;;;;;;31.52;16.67;;;;;;;29.79;67.20;100917.53;5085318;27;65171;-37
2022/11/14 00:27:19;;;;;;;26.92;16.15;;;;;;;29.95;66.93;100939.72;5090881;27;70050;-38
2022/11/14 00:30:08;;;;;;;21.90;15.48;;;;;;;29.93;66.56;100928.31;5089013;27;66144;-38
2022/11/14 00:32:58;;;;;;;25.98;15.60;;;;;;;30.02;66.09;100932.44;5080962;27;69042;-37
2022/11/14 00:35:56;;;;;;;20.08;14.80;;;;;;;30.00;66.26;100940.75;5085058;27;66775;-37
2022/11/14 00:38:45;;;;;;;21.80;14.60;;;;;;;30.04;65.37;100946.59;5078605;27;69296;-37
2022/11/14 00:41:34;;;;;;;23.63;14.80;;;;;;;30.04;65.67;100947.41;5080029;27;66476;-36
2022/11/14 00:44:24;;;;;;;21.92;14.13;;;;;;;30.09;65.68;100949.47;5080132;27;69759;-38
2022/11/14 00:47:14;;;;;;;18.08;13.63;;;;;;;30.10;65.51;100955.72;5082684;27;66358;-37
2022/11/14 00:50:03;;;;;;;19.90;14.27;;;;;;;29.97;65.13;100938.47;5085895;27;69735;-37
2022/11/14 00:52:53;;;;;;;17.75;14.45;;;;;;;30.14;64.91;100960.47;5080019;27;65824;-36
2022/11/14 00:55:42;;;;;;;19.10;14.13;;;;;;;30.16;65.27;100961.09;5085673;27;69652;-36
2022/11/14 00:58:32;;;;;;;15.93;14.18;;;;;;;30.00;65.31;100938.03;5099156;27;66565;-41
2022/11/14 01:01:21;;;;;;;16.48;13.70;;;;;;;30.17;65.44;100970.91;5088380;27;70600;-37
2022/11/14 01:04:10;;;;;;;19.83;13.25;;;;;;;30.19;65.27;100976.06;5081543;27;66509;-36
2022/11/14 01:07:00;;;;;;;14.90;13.13;;;;;;;30.14;64.73;100963.19;5089695;27;69505;-36
2022/11/14 01:09:49;;;;;;;16.45;12.98;;;;;;;30.22;64.83;100968.38;5092403;27;66214;-37
2022/11/14 01:12:38;;;;;;;19.13;12.85;;;;;;;30.24;65.22;100971.72;5092277;27;70537;-37
2022/11/14 01:15:27;;;;;;;14.45;11.75;;;;;;;30.24;64.67;100974.41;5089171;27;65513;-36
2022/11/14 01:18:19;;;;;;;13.60;12.27;;;;;;;30.30;64.49;100985.44;5087262;27;70344;-37
2022/11/14 01:21:11;;;;;;;13.70;12.35;;;;;;;30.12;65.00;100964.47;5078201;27;66755;-37
2022/11/14 01:24:00;;;;;;;13.60;12.23;;;;;;;30.26;64.66;100976.94;5088879;27;70255;-36
2022/11/14 01:26:49;;;;;;;13.50;12.07;;;;;;;30.31;64.94;100985.22;5092663;27;66467;-37
2022/11/14 01:29:39;;;;;;;13.57;11.95;;;;;;;30.22;64.69;100972.97;5085899;27;70838;-37
2022/11/14 01:32:28;;;;;;;13.45;12.13;;;;;;;30.34;65.02;100979.41;5083781;27;66945;-36
2022/11/14 01:35:17;;;;;;;13.70;12.20;;;;;;;30.37;64.90;100991.63;5088143;27;69213;-37
2022/11/14 01:38:06;;;;;;;14.95;11.52;;;;;;;30.39;64.57;100997.69;5081367;27;66480;-37
2022/11/14 01:40:55;;;;;;;12.80;11.60;;;;;;;30.31;64.81;100976.25;5081085;27;70727;-38
2022/11/14 01:43:45;;;;;;;12.85;11.60;;;;;;;30.41;64.95;100996.41;5092535;27;65726;-36
2022/11/14 01:46:37;;;;;;;12.45;11.32;;;;;;;30.16;64.59;100955.69;5086873;27;70351;-36
2022/11/14 01:49:37;;;;;;;14.70;11.20;;;;;;;30.35;65.10;100982.94;5075792;27;66539;-36
2022/11/14 01:52:31;;;;;;;11.73;10.80;;;;;;;30.34;65.04;100986.66;5083925;27;69343;-37
2022/11/14 01:55:20;;;;;;;11.98;10.82;;;;;;;30.42;65.32;100998.09;5087527;27;65824;-36
2022/11/14 01:58:10;;;;;;;11.55;10.52;;;;;;;30.51;65.39;101009.50;5090778;27;70943;-36
2022/11/14 02:01:00;;;;;;;11.80;10.23;;;;;;;30.51;65.27;101012.22;5081689;27;66191;-36
2022/11/14 02:03:54;;;;;;;14.38;10.77;;;;;;;30.55;65.70;101024.25;5087409;27;69355;-36
2022/11/14 02:06:45;;;;;;;11.05;10.05;;;;;;;30.58;65.79;101013.00;5080963;27;65842;-37
2022/11/14 02:09:36;;;;;;;10.45;9.80;;;;;;;30.20;65.24;100939.84;5097271;27;70244;-37
2022/11/14 02:12:26;;;;;;;10.68;9.88;;;;;;;30.61;65.29;101017.97;5094438;27;65612;-37
2022/11/14 02:15:16;;;;;;;10.32;9.52;;;;;;;30.45;65.14;100975.16;5090887;27;70514;-38
2022/11/14 02:18:05;;;;;;;11.50;10.43;;;;;;;30.64;65.41;101006.72;5088197;27;66566;-36
2022/11/14 02:20:55;;;;;;;14.57;10.52;;;;;;;30.35;65.57;100964.81;5093389;27;70219;-36
2022/11/14 02:23:43;;;;;;;10.88;9.93;;;;;;;30.34;64.91;100951.47;5085642;27;66912;-36
2022/11/14 02:26:33;;;;;;;11.48;10.45;;;;;;;30.67;64.89;101006.31;5085021;27;70942;-36
2022/11/14 02:29:23;;;;;;;11.60;10.55;;;;;;;30.72;64.96;101011.88;5094187;27;66712;-37
2022/11/14 02:32:13;;;;;;;12.43;11.40;;;;;;;30.76;65.24;101015.00;5080328;27;69299;-37
2022/11/14 02:35:02;;;;;;;12.95;11.63;;;;;;;30.69;64.84;101008.78;5087217;27;66651;-35
2022/11/14 02:37:51;;;;;;;11.63;10.63;;;;;;;30.80;65.10;101026.28;5082975;27;69985;-36
2022/11/14 02:40:40;;;;;;;11.10;10.15;;;;;;;30.82;64.97;101018.78;5084037;27;66713;-36
2022/11/14 02:43:29;;;;;;;11.27;10.25;;;;;;;30.85;65.34;101015.63;5089514;27;68676;-37
2022/11/14 02:46:19;;;;;;;11.23;10.32;;;;;;;30.78;65.14;100996.66;5083880;27;66453;-37
2022/11/14 02:49:08;;;;;;;12.88;11.52;;;;;;;30.88;64.87;101001.66;5085359;27;70942;-36
2022/11/14 02:51:57;;;;;;;10.98;10.07;;;;;;;30.91;64.77;101007.44;5083258;27;66731;-37
2022/11/14 02:54:46;;;;;;;10.32;9.63;;;;;;;30.95;64.71;101010.53;5082207;27;70474;-36
2022/11/14 02:57:41;;;;;;;11.07;9.98;;;;;;;30.96;64.75;101004.09;5083274;27;66811;-36
2022/11/14 03:00:30;;;;;;;10.70;9.80;;;;;;;30.98;64.51;101002.00;5086288;27;70815;-36
2022/11/14 03:03:19;;;;;;;11.20;10.23;;;;;;;31.01;64.49;100996.16;5093236;27;65627;-36
2022/11/14 03:06:08;;;;;;;11.07;10.07;;;;;;;30.78;64.14;100949.78;5081904;27;69637;-37
2022/11/14 03:08:57;;;;;;;14.45;10.32;;;;;;;31.06;64.12;100985.47;5087145;27;66419;-36
2022/11/14 03:11:46;;;;;;;9.27;8.63;;;;;;;31.03;63.97;100977.78;5082462;27;69281;-36
2022/11/14 03:14:35;;;;;;;10.77;9.77;;;;;;;31.09;63.91;100976.91;5082998;27;65260;-37
2022/11/14 03:17:25;;;;;;;10.18;9.27;;;;;;;31.12;64.02;100976.47;5081866;27;69867;-36
2022/11/14 03:20:13;;;;;;;9.70;8.77;;;;;;;31.06;63.50;100955.66;5083428;27;65742;-36
2022/11/14 03:23:03;;;;;;;9.77;9.05;;;;;;;31.20;63.38;100966.41;5093018;27;69799;-36
2022/11/14 03:25:52;;;;;;;10.80;9.80;;;;;;;31.20;63.83;100961.81;5086694;27;67341;-36
2022/11/14 03:28:42;;;;;;;10.73;9.63;;;;;;;31.23;63.50;100955.13;5085673;27;71307;-36
2022/11/14 03:31:31;;;;;;;10.02;9.13;;;;;;;31.24;63.37;100945.97;5089939;27;66468;-36
2022/11/14 03:34:21;;;;;;;11.70;9.43;;;;;;;31.16;63.67;100928.09;5080451;27;71702;-35
2022/11/14 03:37:10;;;;;;;11.60;9.02;;;;;;;31.30;63.32;100945.88;5087157;27;65980;-37
2022/11/14 03:39:59;;;;;;;9.05;8.20;;;;;;;31.33;63.16;100944.63;5088719;27;70024;-36
2022/11/14 03:42:48;;;;;;;9.85;9.07;;;;;;;31.32;63.32;100932.13;5084288;27;66867;-37
2022/11/14 03:45:38;;;;;;;9.68;8.88;;;;;;;31.33;63.28;100933.78;5086549;27;70163;-36
2022/11/14 03:48:29;;;;;;;10.90;10.00;;;;;;;30.92;62.79;100854.72;5080569;27;66859;-38
2022/11/14 03:51:19;;;;;;;;;;;;;;;31.10;63.62;100924.38;5077706;27;69976;-38
2022/11/14 03:54:08;;;;;;;8.52;7.93;;;;;;;31.35;62.77;100910.81;5080467;27;66026;-36
2022/11/14 03:56:57;;;;;;;8.60;7.82;;;;;;;31.43;63.18;100908.91;5087707;27;70399;-36
2022/11/14 03:59:46;;;;;;;9.02;8.23;;;;;;;31.12;62.51;100857.25;5086568;27;66321;-37
2022/11/14 04:02:36;;;;;;;8.75;7.95;;;;;;;31.37;62.33;100888.94;5086330;27;68340;-36
2022/11/14 04:05:25;;;;;;;8.35;7.55;;;;;;;31.52;62.36;100902.97;5089287;27;65126;-37
2022/11/14 04:08:15;;;;;;;8.10;7.50;;;;;;;31.55;62.02;100902.50;5092814;27;70360;-36
2022/11/14 04:11:05;;;;;;;12.18;7.38;;;;;;;31.58;62.16;100888.50;5083256;27;65470;-37
2022/11/14 04:13:54;;;;;;;8.75;7.35;;;;;;;31.61;62.11;100896.19;5087951;27;68571;-37
2022/11/14 04:16:43;;;;;;;8.30;7.72;;;;;;;31.63;62.14;100876.19;5087651;27;66833;-38
2022/11/14 04:19:31;;;;;;;7.75;7.15;;;;;;;31.66;61.99;100878.44;5092002;27;69388;-37
2022/11/14 04:22:21;;;;;;;7.32;6.82;;;;;;;31.69;61.95;100872.56;5088492;27;66742;-37
2022/11/14 04:25:11;;;;;;;8.23;7.35;;;;;;;31.68;61.77;100873.59;5081234;27;70667;-38
2022/11/14 04:28:01;;;;;;;7.13;6.53;;;;;;;31.71;61.61;100870.44;5090889;27;65809;-37
2022/11/14 04:30:50;;;;;;;6.80;6.40;;;;;;;31.72;62.26;100862.06;5087819;27;69274;-37
2022/11/14 04:33:40;;;;;;;7.18;6.50;;;;;;;31.74;61.84;100859.16;5083591;27;65971;-37
2022/11/14 04:36:29;;;;;;;7.00;6.60;;;;;;;31.63;61.95;100847.16;5080406;27;70903;-37
2022/11/14 04:39:18;;;;;;;7.05;6.35;;;;;;;31.75;61.95;100852.66;5090293;27;65799;-38
2022/11/14 04:42:08;;;;;;;7.97;6.35;;;;;;;31.67;61.81;100836.69;5086720;27;70230;-37
2022/11/14 04:44:57;;;;;;;6.55;5.97;;;;;;;31.42;61.79;100787.97;5079833;27;65369;-38
2022/11/14 04:47:47;;;;;;;6.35;5.85;;;;;;;31.78;61.75;100841.34;5089961;27;70659;-36
2022/11/14 04:50:36;;;;;;;6.35;5.95;;;;;;;31.73;62.07;100824.94;5084577;27;65754;-36
2022/11/14 04:53:25;;;;;;;7.05;6.35;;;;;;;31.85;61.51;100825.84;5081093;27;70536;-37
2022/11/14 04:56:14;;;;;;;6.18;5.55;;;;;;;31.86;61.44;100824.78;5088306;27;66425;-36
2022/11/14 04:59:04;;;;;;;6.15;5.63;;;;;;;31.76;61.54;100791.91;5093604;27;70431;-36
2022/11/14 05:01:53;;;;;;;5.90;5.47;;;;;;;31.93;61.53;100820.13;5079083;27;66508;-37
2022/11/14 05:04:44;;;;;;;5.90;5.50;;;;;;;31.97;61.49;100804.22;5079828;27;69677;-36
2022/11/14 05:07:33;;;;;;;6.03;5.53;;;;;;;31.65;61.37;100746.59;5088178;27;66202;-44
2022/11/14 05:10:22;;;;;;;5.72;5.32;;;;;;;32.01;61.38;100800.81;5094810;27;70089;-38
2022/11/14 05:13:12;;;;;;;5.55;5.05;;;;;;;32.01;61.44;100787.25;5085013;27;65821;-37
2022/11/14 05:16:02;;;;;;;5.40;5.00;;;;;;;31.92;61.36;100758.78;5081266;27;69994;-35
2022/11/14 05:18:53;;;;;;;4.97;4.63;;;;;;;31.98;61.17;100755.16;5080408;27;66564;-36
2022/11/14 05:21:43;;;;;;;5.75;5.25;;;;;;;32.11;61.56;100775.81;5080828;27;71046;-37
2022/11/14 05:24:33;;;;;;;5.07;4.78;;;;;;;32.15;60.91;100762.63;5076420;27;65671;-36
2022/11/14 05:27:23;;;;;;;6.50;4.90;;;;;;;32.13;61.33;100754.72;5094999;27;70302;-36
2022/11/14 05:30:13;;;;;;;5.25;4.78;;;;;;;32.18;61.22;100752.16;5085587;27;65541;-38
2022/11/14 05:33:03;;;;;;;5.30;4.80;;;;;;;32.23;61.13;100754.13;5087762;27;70321;-36
2022/11/14 05:35:52;;;;;;;4.85;4.45;;;;;;;32.09;61.15;100717.41;5082627;27;65800;-37
2022/11/14 05:38:42;;;;;;;5.00;4.40;;;;;;;32.21;61.16;100718.28;5084367;27;70322;-39
2022/11/14 05:41:31;;;;;;;5.32;4.82;;;;;;;32.23;61.08;100705.28;5081970;27;65705;-36
2022/11/14 05:44:21;;;;;;;4.75;4.40;;;;;;;32.32;61.00;100714.75;5085656;27;69832;-36
2022/11/14 05:47:10;;;;;;;4.60;4.30;;;;;;;32.35;61.02;100699.91;5091475;27;66381;-36
2022/11/14 05:50:00;;;;;;;6.05;4.25;;;;;;;32.38;61.03;100705.69;5081825;27;68835;-36
2022/11/14 05:52:49;;;;;;;4.90;4.20;;;;;;;32.41;60.85;100697.06;5086014;27;66486;-36
2022/11/14 05:55:38;;;;;;;4.13;3.83;;;;;;;32.44;60.93;100701.19;5083243;27;69709;-38
2022/11/14 05:58:30;;;;;;;5.50;4.38;;;;;;;32.46;60.83;100686.34;5085082;27;65791;-35
2022/11/14 06:01:20;;;;;;;4.43;3.63;;;;;;;32.42;60.92;100671.56;5080896;27;69885;-38
2022/11/14 06:04:12;;;;;;;4.38;3.97;;;;;;;32.53;61.07;100677.25;5090171;27;65739;-36
2022/11/14 06:07:01;;;;;;;3.90;3.60;;;;;;;32.54;60.76;100676.19;5088985;27;70429;-36
2022/11/14 06:09:50;;;;;;;5.03;3.50;;;;;;;32.58;61.00;100664.63;5092047;27;66235;-37
2022/11/14 06:12:40;;;;;;;5.40;3.35;;;;;;;32.45;60.61;100638.50;5084952;27;70178;-36
2022/11/14 06:15:29;;;;;;;4.50;3.17;;;;;;;32.61;60.45;100658.72;5092451;27;65780;-36
2022/11/14 06:18:18;;;;;;;4.07;3.60;;;;;;;32.63;60.80;100655.78;5088359;27;69836;-37
2022/11/14 06:21:12;;;;;;;4.28;3.88;;;;;;;32.68;60.56;100653.16;5085711;27;66520;-37
2022/11/14 06:24:02;;;;;;;3.70;3.40;;;;;;;32.67;60.61;100640.63;5088150;27;70306;-36
2022/11/14 06:26:51;;;;;;;4.32;3.50;;;;;;;32.69;60.70;100633.09;5085292;27;66492;-36
2022/11/14 06:29:41;;;;;;;4.50;3.70;;;;;;;32.74;60.49;100621.53;5086455;27;70195;-36
2022/11/14 06:32:31;;;;;;;4.65;3.30;;;;;;;32.78;60.70;100617.25;5086130;27;66785;-37
2022/11/14 06:35:20;;;;;;;3.55;3.25;;;;;;;32.43;60.45;100556.47;5084958;27;70452;-36
2022/11/14 06:38:10;;;;;;;3.20;2.90;;;;;;;32.75;60.11;100594.09;5092121;27;66532;-35
2022/11/14 06:41:06;;;;;;;5.45;2.88;;;;;;;32.62;60.23;100578.88;5084505;27;69993;-36
2022/11/14 06:43:55;;;;;;;3.78;3.30;;;;;;;32.88;60.11;100599.28;5084991;27;66352;-36
2022/11/14 06:46:44;;;;;;;3.30;2.90;;;;;;;32.91;60.20;100604.22;5084782;27;70769;-36
2022/11/14 06:49:33;;;;;;;3.85;3.47;;;;;;;32.94;60.20;100601.03;5082302;27;66699;-36
2022/11/14 06:52:27;;;;;;;2.63;2.42;;;;;;;32.96;60.13;100591.78;5086446;27;70577;-36
2022/11/14 06:55:17;;;;;;;3.78;2.92;;;;;;;33.00;59.92;100584.84;5082500;27;66346;-36
2022/11/14 06:58:12;;;;;;;2.95;2.75;;;;;;;33.04;60.19;100595.00;5086860;27;69601;-36
2022/11/14 07:01:06;;;;;;;2.88;2.67;;;;;;;32.98;59.73;100581.50;5084851;27;66016;-36
2022/11/14 07:03:59;;;;;;;3.20;2.90;;;;;;;33.10;59.97;100590.50;5084797;27;70288;-36
2022/11/14 07:06:49;;;;;;;3.30;2.90;;;;;;;33.13;59.81;100582.66;5082996;27;66628;-38
2022/11/14 07:09:38;;;;;;;3.22;2.92;;;;;;;33.10;59.90;100566.03;5084602;27;69689;-37
2022/11/14 07:12:28;;;;;;;5.63;2.72;;;;;;;33.20;59.89;100577.06;5081576;27;65731;-38
2022/11/14 07:15:18;;;;;;;6.43;2.30;;;;;;;33.21;59.94;100565.16;5082797;27;70563;-38
2022/11/14 07:18:08;;;;;;;3.38;2.53;;;;;;;33.27;59.79;100580.47;5085324;27;65515;-36
2022/11/14 07:21:04;;;;;;;4.78;2.78;;;;;;;33.31;59.41;100589.78;5084861;27;70704;-40
2022/11/14 07:23:54;;;;;;;6.47;2.65;;;;;;;33.31;59.52;100589.78;5087596;27;66337;-38
2022/11/14 07:26:45;;;;;;;3.40;2.83;;;;;;;32.90;59.19;100510.22;5072620;27;67663;-36
2022/11/14 07:29:35;;;;;;;7.57;2.70;;;;;;;33.28;59.30;100571.25;5089537;27;66729;-36
2022/11/14 07:32:24;;;;;;;6.18;2.95;;;;;;;33.37;59.36;100586.09;5083850;27;69239;-36
2022/11/14 07:35:13;;;;;;;2.75;2.40;;;;;;;33.38;59.21;100586.94;5091523;27;65732;-37
2022/11/14 07:38:04;;;;;;;3.33;2.53;;;;;;;33.43;59.17;100580.75;5094094;27;70560;-36
2022/11/14 07:41:01;;;;;;;3.15;2.70;;;;;;;33.45;59.13;100581.34;5084623;27;66948;-37
2022/11/14 07:43:51;;;;;;;3.58;2.65;;;;;;;33.44;59.15;100568.81;5084537;27;70504;-35
2022/11/14 07:46:40;;;;;;;2.78;2.58;;;;;;;33.42;59.25;100568.22;5082028;27;66311;-38
2022/11/14 07:49:29;;;;;;;3.03;2.70;;;;;;;33.48;59.19;100580.84;5087599;27;70454;-36
2022/11/14 07:52:19;;;;;;;3.92;2.70;;;;;;;33.49;58.76;100577.03;5089561;27;66296;-36
2022/11/14 07:55:08;;;;;;;8.82;2.78;;;;;;;33.51;58.90;100574.91;5091044;27;70412;-37
2022/11/14 07:58:01;;;;;;;3.15;2.85;;;;;;;33.54;58.49;100574.44;5079752;27;65794;-38
2022/11/14 08:00:51;;;;;;;5.80;3.30;;;;;;;33.38;58.95;100549.69;5086303;27;70394;-37
2022/11/14 08:03:41;;;;;;;3.50;3.10;;;;;;;33.58;58.79;100581.06;5081900;27;66372;-37
2022/11/14 08:06:33;;;;;;;3.75;2.65;;;;;;;33.55;58.79;100576.09;5081269;27;69376;-36
2022/11/14 08:09:22;;;;;;;3.15;2.78;;;;;;;33.60;58.80;100562.59;5081878;27;65469;-36
2022/11/14 08:12:11;;;;;;;3.58;2.78;;;;;;;33.59;58.30;100566.38;5081399;27;70453;-36
2022/11/14 08:15:01;;;;;;;4.03;2.95;;;;;;;33.59;58.78;100566.38;5081357;27;66490;-37
2022/11/14 08:17:50;;;;;;;3.28;2.75;;;;;;;33.59;58.13;100577.25;5088544;27;69833;-38
2022/11/14 08:20:40;;;;;;;5.60;2.72;;;;;;;33.54;58.65;100569.00;5081216;27;66651;-36
2022/11/14 08:23:29;;;;;;;2.75;2.47;;;;;;;33.30;58.59;100525.63;5085864;27;69824;-37
2022/11/14 08:26:19;;;;;;;5.25;3.13;;;;;;;33.60;58.80;100562.59;5080829;27;66267;-38
2022/11/14 08:29:08;;;;;;;3.15;2.83;;;;;;;33.59;58.38;100571.81;5083647;27;69002;-38
2022/11/14 08:31:57;;;;;;;6.65;2.83;;;;;;;33.63;58.59;100600.19;5081050;27;65689;-37
2022/11/14 08:34:46;;;;;;;4.82;3.50;;;;;;;33.56;58.65;100613.09;5079286;27;70809;-37
2022/11/14 08:37:35;;;;;;;3.15;2.85;;;;;;;33.62;58.70;100655.63;5083441;27;66233;-36
2022/11/14 08:40:25;;;;;;;5.25;3.30;;;;;;;33.62;59.02;100669.22;5083851;27;69837;-37
2022/11/14 08:43:14;;;;;;;4.85;3.00;;;;;;;33.60;58.88;100663.22;5081078;27;66717;-36
2022/11/14 08:46:04;;;;;;;5.15;3.15;;;;;;;33.12;59.03;100582.91;5083242;27;70334;-38
2022/11/14 08:48:54;;;;;;;4.43;2.78;;;;;;;33.57;59.13;100663.69;5083649;27;66896;-38
2022/11/14 08:51:44;;;;;;;3.95;3.53;;;;;;;33.56;59.48;100632.13;5079028;27;69763;-37
2022/11/14 08:54:33;;;;;;;7.15;3.60;;;;;;;33.52;60.12;100593.75;5089470;27;66557;-36
2022/11/14 08:57:22;;;;;;;3.65;2.95;;;;;;;33.46;60.20;100577.53;5079301;27;69436;-37
2022/11/14 09:00:12;;;;;;;3.72;3.10;;;;;;;33.46;59.79;100591.97;5079770;27;66947;-38
2022/11/14 09:03:12;;;;;;;3.85;2.78;;;;;;;33.33;59.74;100579.50;5081040;27;70448;-39
2022/11/14 09:06:02;;;;;;;4.60;2.83;;;;;;;33.32;59.85;100586.03;5088775;27;65951;-37
2022/11/14 09:08:52;;;;;;;3.85;2.45;;;;;;;33.35;59.78;100593.69;5084350;27;70148;-38
2022/11/14 09:11:41;;;;;;;6.15;2.97;;;;;;;33.36;59.99;100595.31;5081605;27;65659;-38
2022/11/14 09:14:30;;;;;;;3.92;3.13;;;;;;;33.28;59.96;100597.63;5080822;27;69358;-36
2022/11/14 09:17:19;;;;;;;3.92;2.88;;;;;;;33.32;60.23;100594.16;5083905;27;66287;-37
2022/11/14 09:20:09;;;;;;;4.40;2.72;;;;;;;33.30;60.48;100599.03;5082957;27;70481;-37
2022/11/14 09:23:00;;;;;;;4.55;3.00;;;;;;;33.30;60.14;100587.31;5080086;27;65801;-36
2022/11/14 09:25:49;;;;;;;2.97;2.60;;;;;;;33.26;60.36;100588.88;5079153;27;70657;-37
2022/11/14 09:28:39;;;;;;;7.25;3.22;;;;;;;33.26;60.57;100599.75;5085410;27;65706;-36
2022/11/14 09:31:28;;;;;;;3.45;2.90;;;;;;;33.24;60.31;100602.72;5079581;27;69713;-38
2022/11/14 09:34:18;;;;;;;5.93;3.67;;;;;;;33.25;60.52;100607.06;5085954;27;66484;-36
2022/11/14 09:37:07;;;;;;;3.33;3.03;;;;;;;33.13;60.49;100590.00;5083064;27;69778;-36
2022/11/14 09:39:56;;;;;;;3.63;3.33;;;;;;;33.18;60.52;100602.84;5079731;27;66380;-37
2022/11/14 09:43:11;;;;;;;5.35;3.40;;;;;;;33.18;60.47;100609.09;5079741;27;69505;-36
2022/11/14 09:46:02;;;;;;;3.97;3.58;;;;;;;33.16;60.35;100613.97;5078502;27;66442;-37
2022/11/14 09:48:52;;;;;;;4.15;3.75;;;;;;;33.15;60.54;100628.63;5089241;27;70209;-36
2022/11/14 09:51:51;;;;;;;5.03;3.85;;;;;;;32.66;60.53;100558.34;5081956;27;66580;-36
2022/11/14 09:54:58;;;;;;;4.15;3.80;;;;;;;33.07;60.78;100631.72;5084300;27;70199;-35
2022/11/14 09:57:48;;;;;;;3.45;3.15;;;;;;;32.93;60.51;100618.41;5086382;27;66683;-37
2022/11/14 10:01:04;;;;;;;3.92;3.63;;;;;;;32.49;60.77;100571.84;5077421;27;69354;-36
2022/11/14 10:04:03;;;;;;;4.68;4.00;;;;;;;32.77;60.70;100608.28;5086329;27;65716;-36
2022/11/14 10:06:56;;;;;;;4.28;3.70;;;;;;;32.99;61.10;100640.22;5084427;27;70546;-36
2022/11/14 10:10:25;;;;;;;4.35;3.90;;;;;;;32.88;61.06;100653.59;5080726;27;66550;-36
2022/11/14 10:13:27;;;;;;;4.60;4.10;;;;;;;32.89;61.34;100635.41;5079523;27;69671;-36
2022/11/14 10:16:33;;;;;;;10.35;3.83;;;;;;;32.93;61.12;100640.13;5086898;27;66623;-36
2022/11/14 10:19:46;;;;;;;4.07;3.72;;;;;;;32.86;61.17;100642.16;5083947;27;70185;-36
2022/11/14 10:22:44;;;;;;;4.68;3.95;;;;;;;32.78;60.90;100628.94;5085963;27;65384;-38
2022/11/14 10:25:54;;;;;;;6.97;4.28;;;;;;;32.78;61.06;100645.22;5094722;27;70202;-36
2022/11/14 10:28:53;;;;;;;5.53;4.32;;;;;;;32.79;62.19;100671.34;5087811;27;66837;-36
2022/11/14 10:31:51;;;;;;;9.63;5.40;;;;;;;32.71;62.98;100669.81;5084500;27;70182;-35
2022/11/14 10:34:51;;;;;;;10.38;6.35;;;;;;;32.09;63.86;100595.31;5080903;27;66452;-35
2022/11/14 10:38:24;;;;;;;8.02;7.13;;;;;;;32.44;64.74;100672.16;5087001;27;69896;-38
2022/11/14 10:41:13;;;;;;;13.88;8.32;;;;;;;32.47;64.93;100668.16;5089333;27;66948;-37
2022/11/14 10:44:31;;;;;;;16.85;8.75;;;;;;;32.35;65.46;100651.03;5081852;27;70041;-36
2022/11/14 10:47:23;;;;;;;10.50;9.35;;;;;;;32.39;65.54;100665.78;5090129;27;66353;-36
2022/11/14 10:50:52;;;;;;;11.52;10.02;;;;;;;32.27;65.59;100665.78;5083065;27;69869;-35
2022/11/14 10:53:59;;;;;;;11.98;10.77;;;;;;;31.87;65.99;100612.13;5078794;27;66640;-36
2022/11/14 10:56:51;;;;;;;10.77;9.68;;;;;;;31.87;66.21;100614.84;5084292;27;70736;-36
2022/11/14 10:59:42;;;;;;;11.93;10.07;;;;;;;32.32;67.27;100693.03;5081611;27;65894;-36
2022/11/14 11:02:48;;;;;;;10.98;9.88;;;;;;;32.27;67.99;100706.50;5084111;27;69387;-37
2022/11/14 11:05:48;;;;;;;14.77;9.48;;;;;;;32.36;66.75;100713.22;5085858;27;65758;-36
2022/11/14 11:12:00;;;;;;;11.57;9.40;;;;;;;32.44;66.12;100725.63;5085038;27;65935;-38
2022/11/14 11:15:22;;;;;;;13.60;9.35;;;;;;;32.36;66.22;100724.06;5092101;27;70475;-36
2022/11/14 11:18:35;;;;;;;12.13;8.30;;;;;;;31.94;66.37;100656.28;5083015;27;66132;-37
2022/11/14 11:21:26;;;;;;;14.15;9.15;;;;;;;32.44;65.55;100718.31;5088941;27;70537;-35
2022/11/14 11:24:34;;;;;;;10.27;9.27;;;;;;;32.27;66.64;100704.59;5083366;27;65596;-37
2022/11/14 11:27:29;;;;;;;13.55;9.60;;;;;;;31.65;66.71;100589.31;5087065;27;69268;-35
2022/11/14 11:30:22;;;;;;;14.98;10.40;;;;;;;32.38;66.63;100713.00;5080992;27;65823;-35
2022/11/14 11:33:32;;;;;;;17.17;10.27;;;;;;;32.38;67.29;100740.16;5081431;27;70521;-39
2022/11/14 11:36:24;;;;;;;14.93;10.32;;;;;;;32.45;66.70;100736.22;5080619;27;66342;-35
2022/11/14 11:39:23;;;;;;;13.50;10.73;;;;;;;31.94;67.28;100659.00;5085219;27;70058;-35
2022/11/14 11:42:25;;;;;;;12.18;10.40;;;;;;;32.40;67.38;100738.84;5082276;27;66294;-36
2022/11/14 11:45:35;;;;;;;;;;;;;;;32.13;68.68;100743.88;5084440;27;70560;-38
2022/11/14 11:48:37;;;;;;;17.20;10.57;;;;;;;32.37;67.63;100742.00;5088914;27;66714;-36
2022/11/14 11:51:30;;;;;;;14.73;11.47;;;;;;;32.41;66.86;100750.53;5088262;27;69831;-36
2022/11/14 11:54:32;;;;;;;11.25;10.23;;;;;;;32.35;67.09;100741.44;5087367;27;66579;-36
2022/11/14 11:57:28;;;;;;;13.88;10.35;;;;;;;32.03;67.20;100692.88;5084229;27;69223;-35
2022/11/14 12:00:20;;;;;;;18.08;11.48;;;;;;;31.57;66.93;100626.56;5084799;27;66483;-35
2022/11/14 12:03:15;;;;;;;18.83;11.60;;;;;;;32.40;67.48;100771.44;5088159;27;69613;-36
2022/11/14 12:06:27;;;;;;;20.02;12.93;;;;;;;32.36;68.73;100783.81;5084486;27;65686;-36
2022/11/14 12:09:28;;;;;;;15.75;12.38;;;;;;;31.81;69.55;100713.41;5086551;27;69533;-39
2022/11/14 12:13:08;;;;;;;16.33;12.98;;;;;;;32.13;70.50;100786.47;5089619;27;66477;-36
2022/11/14 12:16:24;;;;;;;22.70;12.63;;;;;;;32.11;71.02;100799.44;5084900;27;69421;-37
2022/11/14 12:19:41;;;;;;;26.88;12.88;;;;;;;32.02;71.88;100802.47;5080458;27;66719;-37
2022/11/14 12:22:55;;;;;;;20.55;12.40;;;;;;;31.95;72.58;100809.84;5089916;27;69205;-38
2022/11/14 12:25:59;;;;;;;13.27;10.93;;;;;;;31.98;72.98;100808.56;5095996;27;66802;-37
2022/11/14 12:28:52;;;;;;;17.15;11.85;;;;;;;31.96;72.94;100808.00;5086949;27;70595;-35
2022/11/14 12:31:42;;;;;;;15.02;11.25;;;;;;;31.94;73.43;100810.91;5085811;27;66334;-37
2022/11/14 12:34:41;;;;;;;18.77;12.05;;;;;;;31.90;73.38;100811.56;5090481;27;70690;-37
2022/11/14 12:37:44;;;;;;;13.82;10.80;;;;;;;31.90;73.45;100831.41;5084203;27;66293;-36
2022/11/14 12:40:48;;;;;;;23.38;10.85;;;;;;;31.64;73.55;100782.91;5080879;27;70636;-35
2022/11/14 12:43:41;;;;;;;16.92;10.68;;;;;;;31.91;73.67;100826.81;5088433;27;66509;-35
2022/11/14 12:47:06;;;;;;;19.52;10.77;;;;;;;31.88;74.39;100844.38;5082780;27;68424;-36
2022/11/14 12:49:58;;;;;;;21.90;10.60;;;;;;;31.91;74.20;100838.50;5087124;27;66597;-38
2022/11/14 12:52:53;;;;;;;16.20;10.25;;;;;;;31.77;73.80;100829.69;5088478;27;69592;-38
2022/11/14 12:55:46;;;;;;;15.25;10.75;;;;;;;31.92;73.90;100859.16;5084261;27;66178;-38
2022/11/14 12:59:10;;;;;;;11.35;9.70;;;;;;;31.83;74.45;100880.28;5084575;27;69509;-37
2022/11/14 13:02:36;;;;;;;15.20;9.48;;;;;;;31.47;74.13;100815.22;5088022;27;66589;-36
2022/11/14 13:05:59;;;;;;;14.98;9.07;;;;;;;31.30;74.30;100793.28;5071714;27;70198;-36
2022/11/14 13:09:07;;;;;;;15.35;9.27;;;;;;;31.83;74.07;100874.88;5079206;27;65644;-36
2022/11/14 13:22:13;;;;;;;10.55;8.50;;;;;;;31.78;74.18;100898.31;5079216;27;66065;-36
2022/11/14 13:25:03;;;;;;;22.73;7.38;;;;;;;31.78;74.44;100898.31;5086963;27;69444;-37
2022/11/14 13:27:54;;;;;;;10.00;7.90;;;;;;;31.81;74.88;100911.41;5087938;27;67483;-39
2022/11/14 13:31:22;;;;;;;7.80;7.15;;;;;;;31.70;74.33;100895.91;5082735;27;69795;-37
2022/11/14 13:34:33;;;;;;;34.15;7.60;;;;;;;31.75;74.57;100920.47;5089415;27;65952;-36